Terminal Aerodrome Forecast
Issued by NWS King Salmon, AK

Current Version | Previous Version | Text Only | Print | Product List | Glossary On
Versions: 1 2 3 4 5 6 7 8 9 10 11 12 13 14 15 16 17 18 19 20 21 22 23 24 25 26 27 28 29 30 31 32
000
FTAK31 PANC 090821 AAA
TAFAKN
TAF AMD
PAKN 090821Z 0908/1006 36015KT 5SM BR SCT003 BKN090
      TEMPO 0908/0912 1 1/2SM -SHSN BR BKN003
     FM091200 36010KT P6SM VCSH BKN035 OVC050
     FM091700 35010KT 6SM -SHSN BR BKN025 OVC040
     FM100200 01008KT P6SM SCT040 BKN080=

USA.gov is the U.S. government's official web portal to all federal, state and local government web resources and services.